sensor_id;sensor_type;location;lat;lon;timestamp;P1;durP1;ratioP1;P2;durP2;ratioP2
13051;SDS011;6592;47.484;9.726;2023-09-19T00:00:39;1.52;;;0.60;;
13051;SDS011;6592;47.484;9.726;2023-09-19T00:03:08;1.70;;;0.70;;
13051;SDS011;6592;47.484;9.726;2023-09-19T00:05:38;1.35;;;0.63;;
13051;SDS011;6592;47.484;9.726;2023-09-19T00:08:09;2.17;;;1.00;;
13051;SDS011;6592;47.484;9.726;2023-09-19T00:10:41;1.63;;;0.70;;
13051;SDS011;6592;47.484;9.726;2023-09-19T00:13:10;4.45;;;0.77;;
13051;SDS011;6592;47.484;9.726;2023-09-19T00:15:42;4.40;;;0.90;;
13051;SDS011;6592;47.484;9.726;2023-09-19T00:18:16;4.80;;;0.85;;
13051;SDS011;6592;47.484;9.726;2023-09-19T00:20:45;1.50;;;0.70;;
13051;SDS011;6592;47.484;9.726;2023-09-19T00:23:16;1.83;;;0.70;;
13051;SDS011;6592;47.484;9.726;2023-09-19T00:25:47;1.75;;;0.70;;
13051;SDS011;6592;47.484;9.726;2023-09-19T00:28:17;1.90;;;0.70;;
13051;SDS011;6592;47.484;9.726;2023-09-19T00:30:46;3.00;;;0.90;;
13051;SDS011;6592;47.484;9.726;2023-09-19T00:33:17;2.58;;;0.75;;
13051;SDS011;6592;47.484;9.726;2023-09-19T00:35:48;2.28;;;0.68;;
13051;SDS011;6592;47.484;9.726;2023-09-19T00:38:18;1.95;;;0.80;;
13051;SDS011;6592;47.484;9.726;2023-09-19T00:40:49;1.55;;;0.80;;
13051;SDS011;6592;47.484;9.726;2023-09-19T00:43:18;2.55;;;0.57;;
13051;SDS011;6592;47.484;9.726;2023-09-19T00:45:47;3.03;;;1.10;;
13051;SDS011;6592;47.484;9.726;2023-09-19T00:48:18;1.73;;;0.82;;
13051;SDS011;6592;47.484;9.726;2023-09-19T00:50:48;1.63;;;0.73;;
13051;SDS011;6592;47.484;9.726;2023-09-19T00:53:19;3.67;;;0.90;;
13051;SDS011;6592;47.484;9.726;2023-09-19T00:55:53;4.00;;;0.80;;
13051;SDS011;6592;47.484;9.726;2023-09-19T00:58:22;4.50;;;0.75;;
13051;SDS011;6592;47.484;9.726;2023-09-19T01:00:51;1.92;;;0.70;;
13051;SDS011;6592;47.484;9.726;2023-09-19T01:03:20;2.13;;;0.57;;
13051;SDS011;6592;47.484;9.726;2023-09-19T01:05:50;1.50;;;0.70;;
13051;SDS011;6592;47.484;9.726;2023-09-19T01:08:18;1.98;;;0.80;;
13051;SDS011;6592;47.484;9.726;2023-09-19T01:10:49;2.42;;;0.82;;
13051;SDS011;6592;47.484;9.726;2023-09-19T01:13:26;2.58;;;0.50;;
13051;SDS011;6592;47.484;9.726;2023-09-19T01:16:03;2.00;;;0.65;;
13051;SDS011;6592;47.484;9.726;2023-09-19T01:18:40;4.63;;;0.70;;
13051;SDS011;6592;47.484;9.726;2023-09-19T01:21:15;4.45;;;0.70;;
13051;SDS011;6592;47.484;9.726;2023-09-19T01:24:16;2.90;;;0.70;;
13051;SDS011;6592;47.484;9.726;2023-09-19T01:27:25;1.73;;;0.65;;
13051;SDS011;6592;47.484;9.726;2023-09-19T01:30:10;1.75;;;0.70;;
13051;SDS011;6592;47.484;9.726;2023-09-19T01:32:41;1.42;;;0.70;;
13051;SDS011;6592;47.484;9.726;2023-09-19T01:35:10;2.85;;;0.65;;
13051;SDS011;6592;47.484;9.726;2023-09-19T01:37:40;1.45;;;0.60;;
13051;SDS011;6592;47.484;9.726;2023-09-19T01:40:11;1.60;;;0.60;;
13051;SDS011;6592;47.484;9.726;2023-09-19T01:42:44;1.92;;;0.70;;
13051;SDS011;6592;47.484;9.726;2023-09-19T01:45:30;2.00;;;0.70;;
13051;SDS011;6592;47.484;9.726;2023-09-19T01:48:05;3.17;;;0.80;;
13051;SDS011;6592;47.484;9.726;2023-09-19T01:50:46;2.03;;;0.60;;
13051;SDS011;6592;47.484;9.726;2023-09-19T01:53:22;1.50;;;0.63;;
13051;SDS011;6592;47.484;9.726;2023-09-19T01:55:54;1.33;;;0.65;;
13051;SDS011;6592;47.484;9.726;2023-09-19T01:58:25;2.13;;;0.60;;
13051;SDS011;6592;47.484;9.726;2023-09-19T02:01:01;1.88;;;0.60;;
13051;SDS011;6592;47.484;9.726;2023-09-19T02:03:33;1.88;;;0.88;;
13051;SDS011;6592;47.484;9.726;2023-09-19T02:06:03;2.00;;;0.60;;
13051;SDS011;6592;47.484;9.726;2023-09-19T02:08:37;2.55;;;0.90;;
13051;SDS011;6592;47.484;9.726;2023-09-19T02:11:06;2.30;;;0.68;;
13051;SDS011;6592;47.484;9.726;2023-09-19T02:13:34;2.75;;;0.70;;
13051;SDS011;6592;47.484;9.726;2023-09-19T02:16:05;1.08;;;0.50;;
13051;SDS011;6592;47.484;9.726;2023-09-19T02:18:33;2.42;;;0.70;;
13051;SDS011;6592;47.484;9.726;2023-09-19T02:21:02;1.90;;;0.63;;
13051;SDS011;6592;47.484;9.726;2023-09-19T02:23:33;2.33;;;0.70;;
13051;SDS011;6592;47.484;9.726;2023-09-19T02:26:01;1.88;;;0.52;;
13051;SDS011;6592;47.484;9.726;2023-09-19T02:28:30;2.35;;;0.68;;
13051;SDS011;6592;47.484;9.726;2023-09-19T02:30:58;1.63;;;0.68;;
13051;SDS011;6592;47.484;9.726;2023-09-19T02:33:28;1.88;;;0.63;;
13051;SDS011;6592;47.484;9.726;2023-09-19T02:35:59;2.33;;;0.70;;
13051;SDS011;6592;47.484;9.726;2023-09-19T02:38:30;1.88;;;0.65;;
13051;SDS011;6592;47.484;9.726;2023-09-19T02:40:58;1.75;;;0.68;;
13051;SDS011;6592;47.484;9.726;2023-09-19T02:43:27;1.65;;;0.50;;
13051;SDS011;6592;47.484;9.726;2023-09-19T02:45:56;3.40;;;0.65;;
13051;SDS011;6592;47.484;9.726;2023-09-19T02:48:24;1.63;;;0.68;;
13051;SDS011;6592;47.484;9.726;2023-09-19T02:50:54;1.88;;;0.60;;
13051;SDS011;6592;47.484;9.726;2023-09-19T02:53:23;1.58;;;0.60;;
13051;SDS011;6592;47.484;9.726;2023-09-19T02:55:51;1.70;;;0.70;;
13051;SDS011;6592;47.484;9.726;2023-09-19T02:58:20;1.85;;;0.68;;
13051;SDS011;6592;47.484;9.726;2023-09-19T03:00:51;3.03;;;1.25;;
13051;SDS011;6592;47.484;9.726;2023-09-19T03:03:21;1.40;;;0.60;;
13051;SDS011;6592;47.484;9.726;2023-09-19T03:05:50;1.33;;;0.60;;
13051;SDS011;6592;47.484;9.726;2023-09-19T03:08:22;1.58;;;0.52;;
13051;SDS011;6592;47.484;9.726;2023-09-19T03:10:51;2.50;;;0.70;;
13051;SDS011;6592;47.484;9.726;2023-09-19T03:13:19;2.72;;;0.80;;
13051;SDS011;6592;47.484;9.726;2023-09-19T03:15:48;1.90;;;0.80;;
13051;SDS011;6592;47.484;9.726;2023-09-19T03:18:17;1.83;;;0.70;;
13051;SDS011;6592;47.484;9.726;2023-09-19T03:20:52;2.95;;;0.70;;
13051;SDS011;6592;47.484;9.726;2023-09-19T03:23:22;1.45;;;0.73;;
13051;SDS011;6592;47.484;9.726;2023-09-19T03:25:52;5.45;;;0.90;;
13051;SDS011;6592;47.484;9.726;2023-09-19T03:28:20;2.13;;;0.80;;
13051;SDS011;6592;47.484;9.726;2023-09-19T03:30:59;1.88;;;0.80;;
13051;SDS011;6592;47.484;9.726;2023-09-19T03:33:28;2.70;;;0.60;;
13051;SDS011;6592;47.484;9.726;2023-09-19T03:35:58;1.15;;;0.63;;
13051;SDS011;6592;47.484;9.726;2023-09-19T03:38:28;2.47;;;0.60;;
13051;SDS011;6592;47.484;9.726;2023-09-19T03:40:56;1.55;;;0.65;;
13051;SDS011;6592;47.484;9.726;2023-09-19T03:43:25;1.27;;;0.60;;
13051;SDS011;6592;47.484;9.726;2023-09-19T03:45:53;1.42;;;0.50;;
13051;SDS011;6592;47.484;9.726;2023-09-19T03:48:21;1.63;;;0.70;;
13051;SDS011;6592;47.484;9.726;2023-09-19T03:50:50;4.70;;;0.90;;
13051;SDS011;6592;47.484;9.726;2023-09-19T03:53:18;1.60;;;0.60;;
13051;SDS011;6592;47.484;9.726;2023-09-19T03:55:48;1.27;;;0.70;;
13051;SDS011;6592;47.484;9.726;2023-09-19T03:58:16;4.80;;;0.80;;
13051;SDS011;6592;47.484;9.726;2023-09-19T04:00:45;2.50;;;0.80;;
13051;SDS011;6592;47.484;9.726;2023-09-19T04:03:14;2.75;;;0.60;;
13051;SDS011;6592;47.484;9.726;2023-09-19T04:05:47;1.85;;;0.70;;
13051;SDS011;6592;47.484;9.726;2023-09-19T04:08:15;7.18;;;0.90;;
13051;SDS011;6592;47.484;9.726;2023-09-19T04:10:44;2.15;;;0.88;;
13051;SDS011;6592;47.484;9.726;2023-09-19T04:13:14;1.60;;;0.80;;
13051;SDS011;6592;47.484;9.726;2023-09-19T04:15:42;3.05;;;0.77;;
13051;SDS011;6592;47.484;9.726;2023-09-19T04:18:12;2.83;;;0.70;;
13051;SDS011;6592;47.484;9.726;2023-09-19T04:20:41;3.35;;;0.90;;
13051;SDS011;6592;47.484;9.726;2023-09-19T04:23:09;4.22;;;1.00;;
13051;SDS011;6592;47.484;9.726;2023-09-19T04:25:40;5.03;;;1.00;;
13051;SDS011;6592;47.484;9.726;2023-09-19T04:28:08;1.85;;;0.73;;
13051;SDS011;6592;47.484;9.726;2023-09-19T04:30:39;1.90;;;0.80;;
13051;SDS011;6592;47.484;9.726;2023-09-19T04:33:07;1.40;;;0.65;;
13051;SDS011;6592;47.484;9.726;2023-09-19T04:35:36;2.15;;;0.90;;
13051;SDS011;6592;47.484;9.726;2023-09-19T04:38:05;3.28;;;0.93;;
13051;SDS011;6592;47.484;9.726;2023-09-19T04:40:33;3.53;;;0.90;;
13051;SDS011;6592;47.484;9.726;2023-09-19T04:43:02;1.95;;;1.00;;
13051;SDS011;6592;47.484;9.726;2023-09-19T04:45:30;2.45;;;0.73;;
13051;SDS011;6592;47.484;9.726;2023-09-19T04:48:00;3.38;;;0.73;;
13051;SDS011;6592;47.484;9.726;2023-09-19T04:50:29;2.70;;;1.05;;
13051;SDS011;6592;47.484;9.726;2023-09-19T04:52:57;3.00;;;0.90;;
13051;SDS011;6592;47.484;9.726;2023-09-19T04:55:26;3.75;;;1.00;;
13051;SDS011;6592;47.484;9.726;2023-09-19T04:57:57;3.13;;;1.00;;
13051;SDS011;6592;47.484;9.726;2023-09-19T05:00:25;2.47;;;0.68;;
13051;SDS011;6592;47.484;9.726;2023-09-19T05:02:56;1.60;;;0.60;;
13051;SDS011;6592;47.484;9.726;2023-09-19T05:05:26;1.77;;;0.70;;
13051;SDS011;6592;47.484;9.726;2023-09-19T05:07:55;1.60;;;0.68;;
13051;SDS011;6592;47.484;9.726;2023-09-19T05:10:23;2.92;;;0.90;;
13051;SDS011;6592;47.484;9.726;2023-09-19T05:12:52;2.47;;;0.80;;
13051;SDS011;6592;47.484;9.726;2023-09-19T05:15:21;1.48;;;0.60;;
13051;SDS011;6592;47.484;9.726;2023-09-19T05:17:50;3.03;;;1.00;;
13051;SDS011;6592;47.484;9.726;2023-09-19T05:20:24;3.17;;;1.00;;
13051;SDS011;6592;47.484;9.726;2023-09-19T05:22:59;3.00;;;1.17;;
13051;SDS011;6592;47.484;9.726;2023-09-19T05:25:34;3.67;;;1.13;;
13051;SDS011;6592;47.484;9.726;2023-09-19T05:28:05;2.97;;;1.27;;
13051;SDS011;6592;47.484;9.726;2023-09-19T05:30:34;2.30;;;1.02;;
13051;SDS011;6592;47.484;9.726;2023-09-19T05:33:05;2.17;;;0.90;;
13051;SDS011;6592;47.484;9.726;2023-09-19T05:35:35;4.60;;;1.15;;
13051;SDS011;6592;47.484;9.726;2023-09-19T05:38:06;3.10;;;1.02;;
13051;SDS011;6592;47.484;9.726;2023-09-19T05:40:35;1.85;;;0.90;;
13051;SDS011;6592;47.484;9.726;2023-09-19T05:43:05;2.08;;;0.80;;
13051;SDS011;6592;47.484;9.726;2023-09-19T05:45:33;2.67;;;0.90;;
13051;SDS011;6592;47.484;9.726;2023-09-19T05:48:07;2.47;;;0.90;;
13051;SDS011;6592;47.484;9.726;2023-09-19T05:50:37;4.82;;;1.10;;
13051;SDS011;6592;47.484;9.726;2023-09-19T05:53:06;3.38;;;1.10;;
13051;SDS011;6592;47.484;9.726;2023-09-19T05:55:34;2.67;;;1.40;;
13051;SDS011;6592;47.484;9.726;2023-09-19T05:58:03;5.63;;;1.25;;
13051;SDS011;6592;47.484;9.726;2023-09-19T06:00:31;2.05;;;0.93;;
13051;SDS011;6592;47.484;9.726;2023-09-19T06:03:02;2.17;;;0.93;;
13051;SDS011;6592;47.484;9.726;2023-09-19T06:05:30;2.05;;;0.90;;
13051;SDS011;6592;47.484;9.726;2023-09-19T06:08:00;5.60;;;1.30;;
13051;SDS011;6592;47.484;9.726;2023-09-19T06:10:34;3.90;;;1.00;;
13051;SDS011;6592;47.484;9.726;2023-09-19T06:13:03;4.80;;;1.00;;
13051;SDS011;6592;47.484;9.726;2023-09-19T06:15:32;2.22;;;1.05;;
13051;SDS011;6592;47.484;9.726;2023-09-19T06:18:02;2.45;;;1.00;;
13051;SDS011;6592;47.484;9.726;2023-09-19T06:20:32;2.35;;;1.15;;
13051;SDS011;6592;47.484;9.726;2023-09-19T06:23:02;1.83;;;0.85;;
13051;SDS011;6592;47.484;9.726;2023-09-19T06:25:31;2.33;;;0.90;;
13051;SDS011;6592;47.484;9.726;2023-09-19T06:27:59;2.10;;;0.70;;
13051;SDS011;6592;47.484;9.726;2023-09-19T06:30:31;2.13;;;0.77;;
13051;SDS011;6592;47.484;9.726;2023-09-19T06:33:01;1.80;;;0.88;;
13051;SDS011;6592;47.484;9.726;2023-09-19T06:35:31;1.67;;;0.80;;
13051;SDS011;6592;47.484;9.726;2023-09-19T06:38:03;2.63;;;1.00;;
13051;SDS011;6592;47.484;9.726;2023-09-19T06:40:33;2.33;;;0.85;;
13051;SDS011;6592;47.484;9.726;2023-09-19T06:43:02;3.15;;;0.85;;
13051;SDS011;6592;47.484;9.726;2023-09-19T06:45:33;2.25;;;0.93;;
13051;SDS011;6592;47.484;9.726;2023-09-19T06:48:01;2.75;;;0.90;;
13051;SDS011;6592;47.484;9.726;2023-09-19T06:50:29;2.60;;;1.08;;
13051;SDS011;6592;47.484;9.726;2023-09-19T06:52:59;1.85;;;0.75;;
13051;SDS011;6592;47.484;9.726;2023-09-19T06:55:29;4.03;;;1.08;;
13051;SDS011;6592;47.484;9.726;2023-09-19T06:57:59;3.78;;;1.27;;
13051;SDS011;6592;47.484;9.726;2023-09-19T07:00:27;3.00;;;0.95;;
13051;SDS011;6592;47.484;9.726;2023-09-19T07:02:58;3.92;;;1.00;;
13051;SDS011;6592;47.484;9.726;2023-09-19T07:05:30;3.42;;;1.10;;
13051;SDS011;6592;47.484;9.726;2023-09-19T07:07:59;2.05;;;1.10;;
13051;SDS011;6592;47.484;9.726;2023-09-19T07:10:27;4.05;;;1.40;;
13051;SDS011;6592;47.484;9.726;2023-09-19T07:12:59;3.03;;;1.13;;
13051;SDS011;6592;47.484;9.726;2023-09-19T07:15:27;4.25;;;1.10;;
13051;SDS011;6592;47.484;9.726;2023-09-19T07:17:57;3.90;;;1.13;;
13051;SDS011;6592;47.484;9.726;2023-09-19T07:20:27;2.08;;;1.00;;
13051;SDS011;6592;47.484;9.726;2023-09-19T07:22:58;4.43;;;1.20;;
13051;SDS011;6592;47.484;9.726;2023-09-19T07:25:27;4.13;;;0.98;;
13051;SDS011;6592;47.484;9.726;2023-09-19T07:27:57;4.82;;;1.20;;
13051;SDS011;6592;47.484;9.726;2023-09-19T07:30:27;4.07;;;1.23;;
13051;SDS011;6592;47.484;9.726;2023-09-19T07:32:56;3.25;;;0.98;;
13051;SDS011;6592;47.484;9.726;2023-09-19T07:35:25;6.65;;;1.10;;
13051;SDS011;6592;47.484;9.726;2023-09-19T07:37:53;3.05;;;1.38;;
13051;SDS011;6592;47.484;9.726;2023-09-19T07:40:23;3.58;;;1.17;;
13051;SDS011;6592;47.484;9.726;2023-09-19T07:42:53;4.22;;;0.93;;
13051;SDS011;6592;47.484;9.726;2023-09-19T07:45:23;3.30;;;1.10;;
13051;SDS011;6592;47.484;9.726;2023-09-19T07:47:51;1.85;;;0.80;;
13051;SDS011;6592;47.484;9.726;2023-09-19T07:50:20;4.00;;;1.13;;
13051;SDS011;6592;47.484;9.726;2023-09-19T07:52:48;7.22;;;1.45;;
13051;SDS011;6592;47.484;9.726;2023-09-19T07:55:19;3.25;;;1.20;;
13051;SDS011;6592;47.484;9.726;2023-09-19T07:57:50;4.05;;;1.27;;
13051;SDS011;6592;47.484;9.726;2023-09-19T08:00:19;2.90;;;1.10;;
13051;SDS011;6592;47.484;9.726;2023-09-19T08:02:49;3.05;;;1.20;;
13051;SDS011;6592;47.484;9.726;2023-09-19T08:05:26;3.33;;;0.90;;
13051;SDS011;6592;47.484;9.726;2023-09-19T08:07:55;2.65;;;1.00;;
13051;SDS011;6592;47.484;9.726;2023-09-19T08:10:25;2.70;;;1.10;;
13051;SDS011;6592;47.484;9.726;2023-09-19T08:12:54;2.67;;;0.90;;
13051;SDS011;6592;47.484;9.726;2023-09-19T08:15:25;3.75;;;0.90;;
13051;SDS011;6592;47.484;9.726;2023-09-19T08:17:55;3.45;;;1.10;;
13051;SDS011;6592;47.484;9.726;2023-09-19T08:20:23;3.67;;;0.90;;
13051;SDS011;6592;47.484;9.726;2023-09-19T08:22:51;3.28;;;1.20;;
13051;SDS011;6592;47.484;9.726;2023-09-19T08:25:21;2.88;;;1.00;;
13051;SDS011;6592;47.484;9.726;2023-09-19T08:27:51;1.88;;;0.73;;
13051;SDS011;6592;47.484;9.726;2023-09-19T08:30:20;3.05;;;1.00;;
13051;SDS011;6592;47.484;9.726;2023-09-19T08:32:51;2.42;;;0.88;;
13051;SDS011;6592;47.484;9.726;2023-09-19T08:35:24;1.90;;;0.60;;
13051;SDS011;6592;47.484;9.726;2023-09-19T08:37:53;2.58;;;0.60;;
13051;SDS011;6592;47.484;9.726;2023-09-19T08:40:22;3.80;;;1.00;;
13051;SDS011;6592;47.484;9.726;2023-09-19T08:42:52;3.50;;;1.00;;
13051;SDS011;6592;47.484;9.726;2023-09-19T08:45:21;3.95;;;0.90;;
13051;SDS011;6592;47.484;9.726;2023-09-19T08:47:53;1.67;;;0.70;;
13051;SDS011;6592;47.484;9.726;2023-09-19T08:50:31;4.38;;;1.08;;
13051;SDS011;6592;47.484;9.726;2023-09-19T08:53:06;1.90;;;0.73;;
13051;SDS011;6592;47.484;9.726;2023-09-19T08:55:38;3.05;;;0.93;;
13051;SDS011;6592;47.484;9.726;2023-09-19T08:58:10;2.13;;;0.85;;
13051;SDS011;6592;47.484;9.726;2023-09-19T09:00:40;2.35;;;0.88;;
13051;SDS011;6592;47.484;9.726;2023-09-19T09:03:11;2.28;;;0.90;;
13051;SDS011;6592;47.484;9.726;2023-09-19T09:05:41;6.18;;;0.80;;
13051;SDS011;6592;47.484;9.726;2023-09-19T09:08:12;2.78;;;1.00;;
13051;SDS011;6592;47.484;9.726;2023-09-19T09:10:43;1.77;;;0.82;;
13051;SDS011;6592;47.484;9.726;2023-09-19T09:13:12;3.42;;;0.95;;
13051;SDS011;6592;47.484;9.726;2023-09-19T09:15:42;1.63;;;0.60;;
13051;SDS011;6592;47.484;9.726;2023-09-19T09:18:12;4.50;;;0.80;;
13051;SDS011;6592;47.484;9.726;2023-09-19T09:20:40;5.78;;;2.10;;
13051;SDS011;6592;47.484;9.726;2023-09-19T09:23:11;2.30;;;1.17;;
13051;SDS011;6592;47.484;9.726;2023-09-19T09:25:47;2.45;;;0.75;;
13051;SDS011;6592;47.484;9.726;2023-09-19T09:28:19;1.65;;;0.75;;
13051;SDS011;6592;47.484;9.726;2023-09-19T09:30:48;3.00;;;1.20;;
13051;SDS011;6592;47.484;9.726;2023-09-19T09:33:18;2.05;;;1.00;;
13051;SDS011;6592;47.484;9.726;2023-09-19T09:35:51;4.60;;;1.00;;
13051;SDS011;6592;47.484;9.726;2023-09-19T09:38:23;3.70;;;1.38;;
13051;SDS011;6592;47.484;9.726;2023-09-19T09:40:54;3.35;;;1.70;;
13051;SDS011;6592;47.484;9.726;2023-09-19T09:43:29;2.80;;;1.20;;
13051;SDS011;6592;47.484;9.726;2023-09-19T09:46:09;4.00;;;1.00;;
13051;SDS011;6592;47.484;9.726;2023-09-19T09:49:01;2.55;;;0.90;;
13051;SDS011;6592;47.484;9.726;2023-09-19T09:51:45;1.75;;;0.73;;
13051;SDS011;6592;47.484;9.726;2023-09-19T09:54:26;3.33;;;0.93;;
13051;SDS011;6592;47.484;9.726;2023-09-19T09:57:01;2.05;;;0.73;;
13051;SDS011;6592;47.484;9.726;2023-09-19T09:59:46;1.80;;;0.90;;
13051;SDS011;6592;47.484;9.726;2023-09-19T10:02:17;2.00;;;0.80;;
13051;SDS011;6592;47.484;9.726;2023-09-19T10:04:53;1.77;;;0.70;;
13051;SDS011;6592;47.484;9.726;2023-09-19T10:07:36;3.15;;;0.80;;
13051;SDS011;6592;47.484;9.726;2023-09-19T10:10:10;2.10;;;0.90;;
13051;SDS011;6592;47.484;9.726;2023-09-19T10:12:48;1.90;;;0.60;;
13051;SDS011;6592;47.484;9.726;2023-09-19T10:15:17;2.20;;;0.60;;
13051;SDS011;6592;47.484;9.726;2023-09-19T10:17:47;1.58;;;0.70;;
13051;SDS011;6592;47.484;9.726;2023-09-19T10:20:17;2.45;;;0.60;;
13051;SDS011;6592;47.484;9.726;2023-09-19T10:23:04;1.65;;;0.60;;
13051;SDS011;6592;47.484;9.726;2023-09-19T10:25:37;3.97;;;0.80;;
13051;SDS011;6592;47.484;9.726;2023-09-19T10:28:07;1.60;;;0.50;;
13051;SDS011;6592;47.484;9.726;2023-09-19T10:30:40;1.45;;;0.60;;
13051;SDS011;6592;47.484;9.726;2023-09-19T10:33:12;1.02;;;0.40;;
13051;SDS011;6592;47.484;9.726;2023-09-19T10:35:43;1.88;;;0.57;;
13051;SDS011;6592;47.484;9.726;2023-09-19T10:38:13;1.10;;;0.40;;
13051;SDS011;6592;47.484;9.726;2023-09-19T10:40:45;2.05;;;0.63;;
13051;SDS011;6592;47.484;9.726;2023-09-19T10:43:17;1.63;;;0.52;;
13051;SDS011;6592;47.484;9.726;2023-09-19T10:45:48;1.60;;;0.50;;
13051;SDS011;6592;47.484;9.726;2023-09-19T10:48:19;1.60;;;0.50;;
13051;SDS011;6592;47.484;9.726;2023-09-19T10:50:56;2.00;;;0.60;;
13051;SDS011;6592;47.484;9.726;2023-09-19T10:53:32;2.70;;;0.60;;
13051;SDS011;6592;47.484;9.726;2023-09-19T10:56:10;1.02;;;0.35;;
13051;SDS011;6592;47.484;9.726;2023-09-19T10:58:48;2.53;;;0.60;;
13051;SDS011;6592;47.484;9.726;2023-09-19T11:01:18;1.45;;;0.50;;
13051;SDS011;6592;47.484;9.726;2023-09-19T11:03:47;3.15;;;0.38;;
13051;SDS011;6592;47.484;9.726;2023-09-19T11:06:21;1.10;;;0.47;;
13051;SDS011;6592;47.484;9.726;2023-09-19T11:08:53;1.45;;;0.50;;
13051;SDS011;6592;47.484;9.726;2023-09-19T11:11:45;2.10;;;0.40;;
13051;SDS011;6592;47.484;9.726;2023-09-19T11:20:22;1.30;;;0.40;;
13051;SDS011;6592;47.484;9.726;2023-09-19T11:23:19;1.60;;;0.43;;
13051;SDS011;6592;47.484;9.726;2023-09-19T11:25:52;1.35;;;0.50;;
13051;SDS011;6592;47.484;9.726;2023-09-19T11:28:31;1.73;;;0.57;;
13051;SDS011;6592;47.484;9.726;2023-09-19T11:34:38;1.55;;;0.47;;
13051;SDS011;6592;47.484;9.726;2023-09-19T11:40:47;3.42;;;0.40;;
13051;SDS011;6592;47.484;9.726;2023-09-19T11:43:35;1.70;;;0.47;;
13051;SDS011;6592;47.484;9.726;2023-09-19T11:46:06;1.35;;;0.40;;
13051;SDS011;6592;47.484;9.726;2023-09-19T11:48:35;1.00;;;0.40;;
13051;SDS011;6592;47.484;9.726;2023-09-19T11:51:14;1.30;;;0.40;;
13051;SDS011;6592;47.484;9.726;2023-09-19T11:53:48;1.10;;;0.50;;
13051;SDS011;6592;47.484;9.726;2023-09-19T11:56:20;1.17;;;0.50;;
13051;SDS011;6592;47.484;9.726;2023-09-19T11:58:51;1.88;;;0.55;;
13051;SDS011;6592;47.484;9.726;2023-09-19T12:01:22;2.20;;;0.47;;
13051;SDS011;6592;47.484;9.726;2023-09-19T12:03:56;1.30;;;0.50;;
13051;SDS011;6592;47.484;9.726;2023-09-19T12:06:26;2.10;;;0.50;;
13051;SDS011;6592;47.484;9.726;2023-09-19T12:08:58;1.45;;;0.68;;
13051;SDS011;6592;47.484;9.726;2023-09-19T12:11:29;1.08;;;0.50;;
13051;SDS011;6592;47.484;9.726;2023-09-19T12:14:01;1.80;;;0.60;;
13051;SDS011;6592;47.484;9.726;2023-09-19T12:16:31;1.08;;;0.55;;
13051;SDS011;6592;47.484;9.726;2023-09-19T12:21:55;2.55;;;0.60;;
13051;SDS011;6592;47.484;9.726;2023-09-19T12:24:26;2.22;;;0.75;;
13051;SDS011;6592;47.484;9.726;2023-09-19T12:27:01;1.20;;;0.50;;
13051;SDS011;6592;47.484;9.726;2023-09-19T12:29:32;1.80;;;0.40;;
13051;SDS011;6592;47.484;9.726;2023-09-19T12:32:10;1.40;;;0.70;;
13051;SDS011;6592;47.484;9.726;2023-09-19T12:34:39;1.10;;;0.47;;
13051;SDS011;6592;47.484;9.726;2023-09-19T12:37:10;1.15;;;0.40;;
13051;SDS011;6592;47.484;9.726;2023-09-19T12:39:42;1.15;;;0.55;;
13051;SDS011;6592;47.484;9.726;2023-09-19T12:42:16;1.33;;;0.50;;
13051;SDS011;6592;47.484;9.726;2023-09-19T12:44:46;0.82;;;0.43;;
13051;SDS011;6592;47.484;9.726;2023-09-19T12:47:19;1.25;;;0.60;;
13051;SDS011;6592;47.484;9.726;2023-09-19T12:50:05;1.60;;;0.50;;
13051;SDS011;6592;47.484;9.726;2023-09-19T12:52:40;1.00;;;0.35;;
13051;SDS011;6592;47.484;9.726;2023-09-19T12:55:19;2.03;;;0.50;;
13051;SDS011;6592;47.484;9.726;2023-09-19T13:00:40;1.95;;;0.50;;
13051;SDS011;6592;47.484;9.726;2023-09-19T13:03:11;1.48;;;0.50;;
13051;SDS011;6592;47.484;9.726;2023-09-19T13:05:49;1.10;;;0.40;;
13051;SDS011;6592;47.484;9.726;2023-09-19T13:08:21;1.50;;;0.50;;
13051;SDS011;6592;47.484;9.726;2023-09-19T13:11:00;1.20;;;0.40;;
13051;SDS011;6592;47.484;9.726;2023-09-19T13:13:41;1.02;;;0.40;;
13051;SDS011;6592;47.484;9.726;2023-09-19T13:16:13;1.13;;;0.40;;
13051;SDS011;6592;47.484;9.726;2023-09-19T13:18:46;1.08;;;0.43;;
13051;SDS011;6592;47.484;9.726;2023-09-19T13:21:17;1.40;;;0.40;;
13051;SDS011;6592;47.484;9.726;2023-09-19T13:23:55;1.27;;;0.50;;
13051;SDS011;6592;47.484;9.726;2023-09-19T13:26:44;1.83;;;0.60;;
13051;SDS011;6592;47.484;9.726;2023-09-19T13:29:14;1.45;;;0.50;;
13051;SDS011;6592;47.484;9.726;2023-09-19T13:31:45;0.85;;;0.50;;
13051;SDS011;6592;47.484;9.726;2023-09-19T13:34:14;1.20;;;0.50;;
13051;SDS011;6592;47.484;9.726;2023-09-19T13:36:43;1.08;;;0.50;;
13051;SDS011;6592;47.484;9.726;2023-09-19T13:39:14;1.63;;;0.50;;
13051;SDS011;6592;47.484;9.726;2023-09-19T13:41:43;1.05;;;0.47;;
13051;SDS011;6592;47.484;9.726;2023-09-19T13:44:14;1.25;;;0.50;;
13051;SDS011;6592;47.484;9.726;2023-09-19T13:46:44;2.10;;;0.70;;
13051;SDS011;6592;47.484;9.726;2023-09-19T13:49:13;2.45;;;0.47;;
13051;SDS011;6592;47.484;9.726;2023-09-19T13:51:42;1.08;;;0.50;;
13051;SDS011;6592;47.484;9.726;2023-09-19T13:54:11;1.52;;;0.50;;
13051;SDS011;6592;47.484;9.726;2023-09-19T13:56:40;0.98;;;0.40;;
13051;SDS011;6592;47.484;9.726;2023-09-19T13:59:09;1.23;;;0.60;;
13051;SDS011;6592;47.484;9.726;2023-09-19T14:01:39;0.80;;;0.40;;
13051;SDS011;6592;47.484;9.726;2023-09-19T14:04:08;1.00;;;0.45;;
13051;SDS011;6592;47.484;9.726;2023-09-19T14:06:41;1.50;;;0.47;;
13051;SDS011;6592;47.484;9.726;2023-09-19T14:09:09;0.70;;;0.43;;
13051;SDS011;6592;47.484;9.726;2023-09-19T14:11:39;1.10;;;0.40;;
13051;SDS011;6592;47.484;9.726;2023-09-19T14:14:08;1.80;;;0.38;;
13051;SDS011;6592;47.484;9.726;2023-09-19T14:16:38;1.00;;;0.50;;
13051;SDS011;6592;47.484;9.726;2023-09-19T14:19:08;1.00;;;0.40;;
13051;SDS011;6592;47.484;9.726;2023-09-19T14:21:36;0.82;;;0.47;;
13051;SDS011;6592;47.484;9.726;2023-09-19T14:24:05;1.30;;;0.40;;
13051;SDS011;6592;47.484;9.726;2023-09-19T14:26:35;0.90;;;0.40;;
13051;SDS011;6592;47.484;9.726;2023-09-19T14:29:04;0.88;;;0.40;;
13051;SDS011;6592;47.484;9.726;2023-09-19T14:31:34;0.77;;;0.30;;
13051;SDS011;6592;47.484;9.726;2023-09-19T14:34:06;2.13;;;0.47;;
13051;SDS011;6592;47.484;9.726;2023-09-19T14:36:36;2.03;;;0.50;;
13051;SDS011;6592;47.484;9.726;2023-09-19T14:39:05;0.63;;;0.30;;
13051;SDS011;6592;47.484;9.726;2023-09-19T14:41:34;2.50;;;0.40;;
13051;SDS011;6592;47.484;9.726;2023-09-19T14:44:03;2.80;;;0.45;;
13051;SDS011;6592;47.484;9.726;2023-09-19T14:46:32;0.80;;;0.40;;
13051;SDS011;6592;47.484;9.726;2023-09-19T14:49:01;3.47;;;0.40;;
13051;SDS011;6592;47.484;9.726;2023-09-19T14:51:31;1.05;;;0.40;;
13051;SDS011;6592;47.484;9.726;2023-09-19T14:53:59;0.85;;;0.30;;
13051;SDS011;6592;47.484;9.726;2023-09-19T14:56:29;0.70;;;0.20;;
13051;SDS011;6592;47.484;9.726;2023-09-19T14:58:57;1.80;;;0.40;;
13051;SDS011;6592;47.484;9.726;2023-09-19T15:01:26;0.88;;;0.57;;
13051;SDS011;6592;47.484;9.726;2023-09-19T15:03:54;1.02;;;0.43;;
13051;SDS011;6592;47.484;9.726;2023-09-19T15:06:24;0.70;;;0.40;;
13051;SDS011;6592;47.484;9.726;2023-09-19T15:08:53;1.00;;;0.40;;
13051;SDS011;6592;47.484;9.726;2023-09-19T15:11:21;2.00;;;0.45;;
13051;SDS011;6592;47.484;9.726;2023-09-19T15:13:50;1.58;;;0.45;;
13051;SDS011;6592;47.484;9.726;2023-09-19T15:18:48;1.25;;;0.32;;
13051;SDS011;6592;47.484;9.726;2023-09-19T15:21:18;3.30;;;0.60;;
13051;SDS011;6592;47.484;9.726;2023-09-19T15:23:48;1.40;;;0.50;;
13051;SDS011;6592;47.484;9.726;2023-09-19T15:26:17;1.55;;;0.40;;
13051;SDS011;6592;47.484;9.726;2023-09-19T15:28:48;1.30;;;0.47;;
13051;SDS011;6592;47.484;9.726;2023-09-19T15:31:16;0.80;;;0.30;;
13051;SDS011;6592;47.484;9.726;2023-09-19T15:33:45;1.13;;;0.50;;
13051;SDS011;6592;47.484;9.726;2023-09-19T15:36:14;1.38;;;0.60;;
13051;SDS011;6592;47.484;9.726;2023-09-19T15:38:55;0.63;;;0.32;;
13051;SDS011;6592;47.484;9.726;2023-09-19T15:41:26;1.05;;;0.40;;
13051;SDS011;6592;47.484;9.726;2023-09-19T15:43:55;3.00;;;0.43;;
13051;SDS011;6592;47.484;9.726;2023-09-19T15:48:56;1.30;;;0.50;;